sensor_id;sensor_type;location;lat;lon;timestamp;P1;durP1;ratioP1;P2;durP2;ratioP2
71696;SDS011;59528;59.082;37.926;2022-08-19T00:01:35;8.00;;;5.40;;
71696;SDS011;59528;59.082;37.926;2022-08-19T00:04:02;11.60;;;6.07;;
71696;SDS011;59528;59.082;37.926;2022-08-19T00:06:29;6.43;;;5.77;;
71696;SDS011;59528;59.082;37.926;2022-08-19T00:08:55;9.97;;;5.37;;
71696;SDS011;59528;59.082;37.926;2022-08-19T00:11:24;7.97;;;5.70;;
71696;SDS011;59528;59.082;37.926;2022-08-19T00:13:56;7.10;;;6.23;;
71696;SDS011;59528;59.082;37.926;2022-08-19T00:16:23;11.27;;;6.53;;
71696;SDS011;59528;59.082;37.926;2022-08-19T00:18:50;11.63;;;6.50;;
71696;SDS011;59528;59.082;37.926;2022-08-19T00:21:15;9.70;;;6.00;;
71696;SDS011;59528;59.082;37.926;2022-08-19T00:23:42;6.77;;;6.07;;
71696;SDS011;59528;59.082;37.926;2022-08-19T00:26:09;8.10;;;6.13;;
71696;SDS011;59528;59.082;37.926;2022-08-19T00:28:35;7.03;;;6.07;;
71696;SDS011;59528;59.082;37.926;2022-08-19T00:31:02;7.37;;;6.37;;
71696;SDS011;59528;59.082;37.926;2022-08-19T00:33:28;7.77;;;6.30;;
71696;SDS011;59528;59.082;37.926;2022-08-19T00:35:55;12.37;;;6.67;;
71696;SDS011;59528;59.082;37.926;2022-08-19T00:38:21;9.47;;;6.10;;
71696;SDS011;59528;59.082;37.926;2022-08-19T00:40:47;6.70;;;6.03;;
71696;SDS011;59528;59.082;37.926;2022-08-19T00:43:18;9.47;;;6.07;;
71696;SDS011;59528;59.082;37.926;2022-08-19T00:45:44;10.30;;;6.30;;
71696;SDS011;59528;59.082;37.926;2022-08-19T00:48:10;8.97;;;6.73;;
71696;SDS011;59528;59.082;37.926;2022-08-19T00:50:35;10.17;;;6.33;;
71696;SDS011;59528;59.082;37.926;2022-08-19T00:53:03;10.87;;;5.77;;
71696;SDS011;59528;59.082;37.926;2022-08-19T00:55:30;8.00;;;6.13;;
71696;SDS011;59528;59.082;37.926;2022-08-19T00:57:57;9.40;;;6.47;;
71696;SDS011;59528;59.082;37.926;2022-08-19T01:00:24;10.67;;;5.60;;
71696;SDS011;59528;59.082;37.926;2022-08-19T01:02:50;8.00;;;6.07;;
71696;SDS011;59528;59.082;37.926;2022-08-19T01:05:18;9.17;;;6.27;;
71696;SDS011;59528;59.082;37.926;2022-08-19T01:07:45;6.73;;;5.87;;
71696;SDS011;59528;59.082;37.926;2022-08-19T01:10:17;7.90;;;6.90;;
71696;SDS011;59528;59.082;37.926;2022-08-19T01:12:45;8.40;;;6.30;;
71696;SDS011;59528;59.082;37.926;2022-08-19T01:15:12;9.20;;;6.10;;
71696;SDS011;59528;59.082;37.926;2022-08-19T01:17:39;7.37;;;6.30;;
71696;SDS011;59528;59.082;37.926;2022-08-19T01:20:05;7.40;;;6.13;;
71696;SDS011;59528;59.082;37.926;2022-08-19T01:22:42;7.27;;;6.23;;
71696;SDS011;59528;59.082;37.926;2022-08-19T01:25:08;7.00;;;5.90;;
71696;SDS011;59528;59.082;37.926;2022-08-19T01:27:38;7.63;;;6.33;;
71696;SDS011;59528;59.082;37.926;2022-08-19T01:30:04;8.63;;;5.80;;
71696;SDS011;59528;59.082;37.926;2022-08-19T01:32:31;7.73;;;5.40;;
71696;SDS011;59528;59.082;37.926;2022-08-19T01:34:56;7.57;;;5.87;;
71696;SDS011;59528;59.082;37.926;2022-08-19T01:37:23;8.77;;;6.20;;
71696;SDS011;59528;59.082;37.926;2022-08-19T01:39:49;9.67;;;6.23;;
71696;SDS011;59528;59.082;37.926;2022-08-19T01:42:15;11.50;;;6.50;;
71696;SDS011;59528;59.082;37.926;2022-08-19T01:44:41;8.00;;;5.87;;
71696;SDS011;59528;59.082;37.926;2022-08-19T01:47:07;10.63;;;5.67;;
71696;SDS011;59528;59.082;37.926;2022-08-19T01:49:34;6.77;;;5.57;;
71696;SDS011;59528;59.082;37.926;2022-08-19T01:52:00;7.97;;;5.90;;
71696;SDS011;59528;59.082;37.926;2022-08-19T01:54:26;7.43;;;6.10;;
71696;SDS011;59528;59.082;37.926;2022-08-19T01:56:52;7.33;;;6.47;;
71696;SDS011;59528;59.082;37.926;2022-08-19T01:59:21;8.07;;;6.10;;
71696;SDS011;59528;59.082;37.926;2022-08-19T02:01:48;8.47;;;6.20;;
71696;SDS011;59528;59.082;37.926;2022-08-19T02:04:13;6.97;;;6.27;;
71696;SDS011;59528;59.082;37.926;2022-08-19T02:06:39;11.47;;;6.67;;
71696;SDS011;59528;59.082;37.926;2022-08-19T02:09:05;8.43;;;6.63;;
71696;SDS011;59528;59.082;37.926;2022-08-19T02:11:33;8.20;;;6.53;;
71696;SDS011;59528;59.082;37.926;2022-08-19T02:13:59;7.67;;;6.90;;
71696;SDS011;59528;59.082;37.926;2022-08-19T02:16:27;8.50;;;6.37;;
71696;SDS011;59528;59.082;37.926;2022-08-19T02:18:53;11.13;;;7.20;;
71696;SDS011;59528;59.082;37.926;2022-08-19T02:21:20;7.80;;;7.00;;
71696;SDS011;59528;59.082;37.926;2022-08-19T02:23:47;10.60;;;8.00;;
71696;SDS011;59528;59.082;37.926;2022-08-19T02:26:13;9.30;;;7.03;;
71696;SDS011;59528;59.082;37.926;2022-08-19T02:28:39;9.60;;;7.23;;
71696;SDS011;59528;59.082;37.926;2022-08-19T02:31:18;8.93;;;7.30;;
71696;SDS011;59528;59.082;37.926;2022-08-19T02:33:45;11.73;;;7.30;;
71696;SDS011;59528;59.082;37.926;2022-08-19T02:36:11;8.83;;;7.87;;
71696;SDS011;59528;59.082;37.926;2022-08-19T02:38:38;9.83;;;7.03;;
71696;SDS011;59528;59.082;37.926;2022-08-19T02:41:06;12.10;;;7.00;;
71696;SDS011;59528;59.082;37.926;2022-08-19T02:43:33;9.77;;;6.53;;
71696;SDS011;59528;59.082;37.926;2022-08-19T02:46:10;10.70;;;7.13;;
71696;SDS011;59528;59.082;37.926;2022-08-19T02:48:39;8.70;;;7.10;;
71696;SDS011;59528;59.082;37.926;2022-08-19T02:51:05;7.63;;;6.83;;
71696;SDS011;59528;59.082;37.926;2022-08-19T02:53:31;7.53;;;5.83;;
71696;SDS011;59528;59.082;37.926;2022-08-19T02:55:56;8.30;;;6.37;;
71696;SDS011;59528;59.082;37.926;2022-08-19T02:58:22;7.83;;;6.63;;
71696;SDS011;59528;59.082;37.926;2022-08-19T03:00:49;9.43;;;6.63;;
71696;SDS011;59528;59.082;37.926;2022-08-19T03:03:15;8.17;;;6.50;;
71696;SDS011;59528;59.082;37.926;2022-08-19T03:05:41;9.17;;;6.60;;
71696;SDS011;59528;59.082;37.926;2022-08-19T03:08:07;8.60;;;6.80;;
71696;SDS011;59528;59.082;37.926;2022-08-19T03:10:39;9.77;;;6.43;;
71696;SDS011;59528;59.082;37.926;2022-08-19T03:13:04;8.33;;;6.87;;
71696;SDS011;59528;59.082;37.926;2022-08-19T03:15:30;8.50;;;6.47;;
71696;SDS011;59528;59.082;37.926;2022-08-19T03:17:55;7.60;;;6.33;;
71696;SDS011;59528;59.082;37.926;2022-08-19T03:20:21;8.53;;;6.17;;
71696;SDS011;59528;59.082;37.926;2022-08-19T03:22:47;8.70;;;6.17;;
71696;SDS011;59528;59.082;37.926;2022-08-19T03:25:12;11.33;;;6.23;;
71696;SDS011;59528;59.082;37.926;2022-08-19T03:27:38;10.10;;;6.40;;
71696;SDS011;59528;59.082;37.926;2022-08-19T03:30:03;8.60;;;5.77;;
71696;SDS011;59528;59.082;37.926;2022-08-19T03:32:29;6.67;;;5.50;;
71696;SDS011;59528;59.082;37.926;2022-08-19T03:34:55;10.00;;;5.93;;
71696;SDS011;59528;59.082;37.926;2022-08-19T03:37:20;8.53;;;6.10;;
71696;SDS011;59528;59.082;37.926;2022-08-19T03:39:47;7.60;;;5.73;;
71696;SDS011;59528;59.082;37.926;2022-08-19T03:42:13;8.23;;;5.80;;
71696;SDS011;59528;59.082;37.926;2022-08-19T03:44:38;7.47;;;6.17;;
71696;SDS011;59528;59.082;37.926;2022-08-19T03:47:04;7.80;;;5.90;;
71696;SDS011;59528;59.082;37.926;2022-08-19T03:49:31;6.93;;;5.30;;
71696;SDS011;59528;59.082;37.926;2022-08-19T03:51:58;6.63;;;5.93;;
71696;SDS011;59528;59.082;37.926;2022-08-19T03:54:26;7.73;;;5.77;;
71696;SDS011;59528;59.082;37.926;2022-08-19T03:56:52;9.77;;;5.87;;
71696;SDS011;59528;59.082;37.926;2022-08-19T03:59:20;7.57;;;6.27;;
71696;SDS011;59528;59.082;37.926;2022-08-19T04:01:46;6.67;;;5.97;;
71696;SDS011;59528;59.082;37.926;2022-08-19T04:04:12;8.93;;;5.97;;
71696;SDS011;59528;59.082;37.926;2022-08-19T04:06:38;7.93;;;6.00;;
71696;SDS011;59528;59.082;37.926;2022-08-19T04:09:05;6.73;;;5.77;;
71696;SDS011;59528;59.082;37.926;2022-08-19T04:11:33;7.47;;;6.03;;
71696;SDS011;59528;59.082;37.926;2022-08-19T04:13:59;9.20;;;6.17;;
71696;SDS011;59528;59.082;37.926;2022-08-19T04:16:26;9.33;;;6.10;;
71696;SDS011;59528;59.082;37.926;2022-08-19T04:18:55;10.33;;;5.67;;
71696;SDS011;59528;59.082;37.926;2022-08-19T04:21:23;7.60;;;6.07;;
71696;SDS011;59528;59.082;37.926;2022-08-19T04:23:49;6.33;;;5.50;;
71696;SDS011;59528;59.082;37.926;2022-08-19T04:26:16;9.43;;;5.90;;
71696;SDS011;59528;59.082;37.926;2022-08-19T04:28:44;8.40;;;5.63;;
71696;SDS011;59528;59.082;37.926;2022-08-19T04:31:24;8.10;;;5.77;;
71696;SDS011;59528;59.082;37.926;2022-08-19T04:33:53;7.87;;;6.67;;
71696;SDS011;59528;59.082;37.926;2022-08-19T04:36:20;8.57;;;5.80;;
71696;SDS011;59528;59.082;37.926;2022-08-19T04:38:47;7.77;;;5.80;;
71696;SDS011;59528;59.082;37.926;2022-08-19T04:41:12;11.37;;;5.87;;
71696;SDS011;59528;59.082;37.926;2022-08-19T04:43:57;10.80;;;5.67;;
71696;SDS011;59528;59.082;37.926;2022-08-19T04:46:22;8.13;;;5.80;;
71696;SDS011;59528;59.082;37.926;2022-08-19T04:48:48;7.90;;;5.77;;
71696;SDS011;59528;59.082;37.926;2022-08-19T04:51:13;9.10;;;6.00;;
71696;SDS011;59528;59.082;37.926;2022-08-19T04:53:40;7.93;;;6.00;;
71696;SDS011;59528;59.082;37.926;2022-08-19T04:56:06;9.90;;;5.70;;
71696;SDS011;59528;59.082;37.926;2022-08-19T04:58:36;11.00;;;5.90;;
71696;SDS011;59528;59.082;37.926;2022-08-19T05:01:02;9.27;;;6.00;;
71696;SDS011;59528;59.082;37.926;2022-08-19T05:03:28;8.30;;;5.20;;
71696;SDS011;59528;59.082;37.926;2022-08-19T05:06:03;12.60;;;6.60;;
71696;SDS011;59528;59.082;37.926;2022-08-19T05:08:29;7.57;;;5.90;;
71696;SDS011;59528;59.082;37.926;2022-08-19T05:10:55;9.27;;;5.60;;
71696;SDS011;59528;59.082;37.926;2022-08-19T05:13:22;8.77;;;5.37;;
71696;SDS011;59528;59.082;37.926;2022-08-19T05:15:55;10.30;;;6.00;;
71696;SDS011;59528;59.082;37.926;2022-08-19T05:18:21;9.60;;;6.00;;
71696;SDS011;59528;59.082;37.926;2022-08-19T05:21:06;11.20;;;5.70;;
71696;SDS011;59528;59.082;37.926;2022-08-19T05:23:51;8.33;;;5.37;;
71696;SDS011;59528;59.082;37.926;2022-08-19T05:26:16;6.47;;;5.73;;
71696;SDS011;59528;59.082;37.926;2022-08-19T05:28:42;7.53;;;5.57;;
71696;SDS011;59528;59.082;37.926;2022-08-19T05:31:08;10.23;;;5.83;;
71696;SDS011;59528;59.082;37.926;2022-08-19T05:33:33;7.33;;;5.63;;
71696;SDS011;59528;59.082;37.926;2022-08-19T05:36:00;8.17;;;6.53;;
71696;SDS011;59528;59.082;37.926;2022-08-19T05:38:26;7.10;;;6.17;;
71696;SDS011;59528;59.082;37.926;2022-08-19T05:40:52;8.53;;;6.13;;
71696;SDS011;59528;59.082;37.926;2022-08-19T05:43:21;9.23;;;6.17;;
71696;SDS011;59528;59.082;37.926;2022-08-19T05:45:46;8.87;;;5.80;;
71696;SDS011;59528;59.082;37.926;2022-08-19T05:48:12;9.40;;;6.40;;
71696;SDS011;59528;59.082;37.926;2022-08-19T05:50:39;10.03;;;6.50;;
71696;SDS011;59528;59.082;37.926;2022-08-19T05:53:05;9.87;;;6.40;;
71696;SDS011;59528;59.082;37.926;2022-08-19T05:55:31;9.40;;;7.10;;
71696;SDS011;59528;59.082;37.926;2022-08-19T05:57:56;8.87;;;7.13;;
71696;SDS011;59528;59.082;37.926;2022-08-19T06:00:23;10.47;;;6.70;;
71696;SDS011;59528;59.082;37.926;2022-08-19T06:02:49;7.67;;;6.70;;
71696;SDS011;59528;59.082;37.926;2022-08-19T06:05:16;10.57;;;6.40;;
71696;SDS011;59528;59.082;37.926;2022-08-19T06:07:42;11.00;;;7.70;;
71696;SDS011;59528;59.082;37.926;2022-08-19T06:10:08;10.70;;;7.70;;
71696;SDS011;59528;59.082;37.926;2022-08-19T06:12:35;9.13;;;8.03;;
71696;SDS011;59528;59.082;37.926;2022-08-19T06:15:02;10.43;;;7.77;;
71696;SDS011;59528;59.082;37.926;2022-08-19T06:17:30;9.67;;;8.20;;
71696;SDS011;59528;59.082;37.926;2022-08-19T06:20:19;13.60;;;7.70;;
71696;SDS011;59528;59.082;37.926;2022-08-19T06:22:55;11.60;;;8.70;;
71696;SDS011;59528;59.082;37.926;2022-08-19T06:25:26;12.03;;;8.27;;
71696;SDS011;59528;59.082;37.926;2022-08-19T06:27:52;8.63;;;7.63;;
71696;SDS011;59528;59.082;37.926;2022-08-19T06:30:18;11.53;;;8.30;;
71696;SDS011;59528;59.082;37.926;2022-08-19T06:32:45;12.90;;;8.73;;
71696;SDS011;59528;59.082;37.926;2022-08-19T06:35:14;12.50;;;9.37;;
71696;SDS011;59528;59.082;37.926;2022-08-19T06:37:53;12.33;;;9.77;;
71696;SDS011;59528;59.082;37.926;2022-08-19T06:40:21;12.57;;;10.13;;
71696;SDS011;59528;59.082;37.926;2022-08-19T06:42:47;18.20;;;10.33;;
71696;SDS011;59528;59.082;37.926;2022-08-19T06:45:13;13.73;;;10.70;;
71696;SDS011;59528;59.082;37.926;2022-08-19T06:47:42;14.57;;;11.80;;
71696;SDS011;59528;59.082;37.926;2022-08-19T06:50:21;15.60;;;12.10;;
71696;SDS011;59528;59.082;37.926;2022-08-19T06:53:13;14.43;;;11.23;;
71696;SDS011;59528;59.082;37.926;2022-08-19T06:55:39;16.37;;;11.57;;
71696;SDS011;59528;59.082;37.926;2022-08-19T06:58:06;15.73;;;11.37;;
71696;SDS011;59528;59.082;37.926;2022-08-19T07:00:32;16.07;;;12.47;;
71696;SDS011;59528;59.082;37.926;2022-08-19T07:02:57;14.60;;;11.87;;
71696;SDS011;59528;59.082;37.926;2022-08-19T07:05:24;19.07;;;12.33;;
71696;SDS011;59528;59.082;37.926;2022-08-19T07:07:50;17.80;;;11.27;;
71696;SDS011;59528;59.082;37.926;2022-08-19T07:10:16;15.20;;;10.90;;
71696;SDS011;59528;59.082;37.926;2022-08-19T07:12:41;12.57;;;11.07;;
71696;SDS011;59528;59.082;37.926;2022-08-19T07:15:07;14.23;;;11.13;;
71696;SDS011;59528;59.082;37.926;2022-08-19T07:17:35;12.80;;;9.10;;
71696;SDS011;59528;59.082;37.926;2022-08-19T07:20:04;11.57;;;9.13;;
71696;SDS011;59528;59.082;37.926;2022-08-19T07:22:42;9.47;;;8.20;;
71696;SDS011;59528;59.082;37.926;2022-08-19T07:25:22;10.17;;;8.43;;
71696;SDS011;59528;59.082;37.926;2022-08-19T07:27:52;10.37;;;8.30;;
71696;SDS011;59528;59.082;37.926;2022-08-19T07:30:18;11.73;;;8.00;;
71696;SDS011;59528;59.082;37.926;2022-08-19T07:32:43;10.17;;;7.87;;
71696;SDS011;59528;59.082;37.926;2022-08-19T07:35:11;11.33;;;7.33;;
71696;SDS011;59528;59.082;37.926;2022-08-19T07:37:38;7.50;;;6.77;;
71696;SDS011;59528;59.082;37.926;2022-08-19T07:40:20;11.00;;;6.60;;
71696;SDS011;59528;59.082;37.926;2022-08-19T07:42:45;10.70;;;6.47;;
71696;SDS011;59528;59.082;37.926;2022-08-19T07:45:11;6.20;;;5.20;;
71696;SDS011;59528;59.082;37.926;2022-08-19T07:47:36;6.33;;;5.07;;
71696;SDS011;59528;59.082;37.926;2022-08-19T07:50:03;9.33;;;5.87;;
71696;SDS011;59528;59.082;37.926;2022-08-19T07:52:29;7.87;;;5.20;;
71696;SDS011;59528;59.082;37.926;2022-08-19T07:54:55;7.43;;;5.10;;
71696;SDS011;59528;59.082;37.926;2022-08-19T07:57:20;7.17;;;5.30;;
71696;SDS011;59528;59.082;37.926;2022-08-19T07:59:47;7.67;;;5.00;;
71696;SDS011;59528;59.082;37.926;2022-08-19T08:02:12;8.40;;;5.10;;
71696;SDS011;59528;59.082;37.926;2022-08-19T08:04:38;4.87;;;4.30;;
71696;SDS011;59528;59.082;37.926;2022-08-19T08:07:22;17.53;;;4.80;;
71696;SDS011;59528;59.082;37.926;2022-08-19T08:10:06;17.43;;;4.60;;
71696;SDS011;59528;59.082;37.926;2022-08-19T08:12:36;26.17;;;6.20;;
71696;SDS011;59528;59.082;37.926;2022-08-19T08:15:08;22.90;;;5.13;;
71696;SDS011;59528;59.082;37.926;2022-08-19T08:17:34;23.07;;;4.87;;
71696;SDS011;59528;59.082;37.926;2022-08-19T08:20:03;22.83;;;5.77;;
71696;SDS011;59528;59.082;37.926;2022-08-19T08:22:32;11.60;;;4.60;;
71696;SDS011;59528;59.082;37.926;2022-08-19T08:25:18;13.43;;;4.00;;
71696;SDS011;59528;59.082;37.926;2022-08-19T08:27:44;11.33;;;4.63;;
71696;SDS011;59528;59.082;37.926;2022-08-19T08:30:14;7.57;;;4.03;;
71696;SDS011;59528;59.082;37.926;2022-08-19T08:32:40;15.33;;;5.13;;
71696;SDS011;59528;59.082;37.926;2022-08-19T08:35:07;13.50;;;4.90;;
71696;SDS011;59528;59.082;37.926;2022-08-19T08:37:33;15.90;;;4.53;;
71696;SDS011;59528;59.082;37.926;2022-08-19T08:40:02;10.40;;;4.63;;
71696;SDS011;59528;59.082;37.926;2022-08-19T08:42:32;7.67;;;4.10;;
71696;SDS011;59528;59.082;37.926;2022-08-19T08:45:00;7.30;;;4.07;;
71696;SDS011;59528;59.082;37.926;2022-08-19T08:47:31;7.70;;;4.00;;
71696;SDS011;59528;59.082;37.926;2022-08-19T08:50:07;5.43;;;3.97;;
71696;SDS011;59528;59.082;37.926;2022-08-19T08:52:37;7.50;;;4.03;;
71696;SDS011;59528;59.082;37.926;2022-08-19T08:55:08;6.13;;;4.00;;
71696;SDS011;59528;59.082;37.926;2022-08-19T08:57:36;8.57;;;3.73;;
71696;SDS011;59528;59.082;37.926;2022-08-19T09:00:07;5.80;;;4.00;;
71696;SDS011;59528;59.082;37.926;2022-08-19T09:02:33;9.23;;;3.73;;
71696;SDS011;59528;59.082;37.926;2022-08-19T09:04:59;3.93;;;3.50;;
71696;SDS011;59528;59.082;37.926;2022-08-19T09:10:10;5.27;;;3.63;;
71696;SDS011;59528;59.082;37.926;2022-08-19T09:12:48;6.63;;;3.53;;
71696;SDS011;59528;59.082;37.926;2022-08-19T09:15:18;4.70;;;3.30;;
71696;SDS011;59528;59.082;37.926;2022-08-19T09:17:48;4.35;;;3.60;;
71696;SDS011;59528;59.082;37.926;2022-08-19T09:20:20;4.82;;;3.50;;
71696;SDS011;59528;59.082;37.926;2022-08-19T09:22:45;4.45;;;3.38;;
71696;SDS011;59528;59.082;37.926;2022-08-19T09:25:13;5.20;;;3.17;;
71696;SDS011;59528;59.082;37.926;2022-08-19T09:27:40;4.97;;;3.20;;
71696;SDS011;59528;59.082;37.926;2022-08-19T09:30:06;3.75;;;3.22;;
71696;SDS011;59528;59.082;37.926;2022-08-19T09:32:32;3.53;;;2.88;;
71696;SDS011;59528;59.082;37.926;2022-08-19T09:34:58;3.95;;;3.17;;
71696;SDS011;59528;59.082;37.926;2022-08-19T09:37:25;6.90;;;2.60;;
71696;SDS011;59528;59.082;37.926;2022-08-19T09:39:51;4.15;;;2.60;;
71696;SDS011;59528;59.082;37.926;2022-08-19T09:42:17;9.70;;;2.65;;
71696;SDS011;59528;59.082;37.926;2022-08-19T09:44:43;2.72;;;2.40;;
71696;SDS011;59528;59.082;37.926;2022-08-19T09:47:09;6.88;;;3.10;;
71696;SDS011;59528;59.082;37.926;2022-08-19T09:49:35;3.85;;;3.03;;
71696;SDS011;59528;59.082;37.926;2022-08-19T09:52:01;4.25;;;3.10;;
71696;SDS011;59528;59.082;37.926;2022-08-19T09:54:26;3.20;;;2.90;;
71696;SDS011;59528;59.082;37.926;2022-08-19T09:56:53;3.40;;;3.10;;
71696;SDS011;59528;59.082;37.926;2022-08-19T09:59:19;5.38;;;2.85;;
71696;SDS011;59528;59.082;37.926;2022-08-19T10:01:44;3.83;;;2.78;;
71696;SDS011;59528;59.082;37.926;2022-08-19T10:04:10;6.18;;;3.05;;
71696;SDS011;59528;59.082;37.926;2022-08-19T10:06:39;3.58;;;2.78;;
71696;SDS011;59528;59.082;37.926;2022-08-19T10:09:18;4.88;;;2.65;;
71696;SDS011;59528;59.082;37.926;2022-08-19T10:11:44;6.03;;;2.88;;
71696;SDS011;59528;59.082;37.926;2022-08-19T10:14:15;4.00;;;2.35;;
71696;SDS011;59528;59.082;37.926;2022-08-19T10:16:42;2.70;;;2.50;;
71696;SDS011;59528;59.082;37.926;2022-08-19T10:19:08;4.55;;;2.65;;
71696;SDS011;59528;59.082;37.926;2022-08-19T10:21:34;2.42;;;2.17;;
71696;SDS011;59528;59.082;37.926;2022-08-19T10:24:01;5.05;;;2.70;;
71696;SDS011;59528;59.082;37.926;2022-08-19T10:26:30;2.85;;;2.00;;
71696;SDS011;59528;59.082;37.926;2022-08-19T10:28:56;3.25;;;2.10;;
71696;SDS011;59528;59.082;37.926;2022-08-19T10:31:31;4.88;;;2.38;;
71696;SDS011;59528;59.082;37.926;2022-08-19T10:33:59;4.25;;;2.22;;
71696;SDS011;59528;59.082;37.926;2022-08-19T10:36:27;2.88;;;2.00;;
71696;SDS011;59528;59.082;37.926;2022-08-19T10:38:53;8.23;;;2.45;;
71696;SDS011;59528;59.082;37.926;2022-08-19T10:41:22;2.42;;;2.00;;
71696;SDS011;59528;59.082;37.926;2022-08-19T10:43:52;2.63;;;2.17;;
71696;SDS011;59528;59.082;37.926;2022-08-19T10:46:19;3.55;;;2.65;;
71696;SDS011;59528;59.082;37.926;2022-08-19T10:48:45;3.95;;;2.30;;
71696;SDS011;59528;59.082;37.926;2022-08-19T10:51:11;4.35;;;2.17;;
71696;SDS011;59528;59.082;37.926;2022-08-19T10:53:56;3.63;;;2.20;;
71696;SDS011;59528;59.082;37.926;2022-08-19T10:56:23;2.70;;;2.03;;
71696;SDS011;59528;59.082;37.926;2022-08-19T10:59:15;3.78;;;2.45;;
71696;SDS011;59528;59.082;37.926;2022-08-19T11:01:54;4.22;;;2.35;;
71696;SDS011;59528;59.082;37.926;2022-08-19T11:04:20;2.70;;;2.38;;
71696;SDS011;59528;59.082;37.926;2022-08-19T11:06:49;3.13;;;2.10;;
71696;SDS011;59528;59.082;37.926;2022-08-19T11:09:27;3.42;;;2.10;;
71696;SDS011;59528;59.082;37.926;2022-08-19T11:11:53;5.47;;;2.25;;
71696;SDS011;59528;59.082;37.926;2022-08-19T11:14:19;2.70;;;2.50;;
71696;SDS011;59528;59.082;37.926;2022-08-19T11:16:46;3.90;;;2.67;;
71696;SDS011;59528;59.082;37.926;2022-08-19T11:19:12;3.22;;;2.60;;
71696;SDS011;59528;59.082;37.926;2022-08-19T11:21:41;2.67;;;2.40;;
71696;SDS011;59528;59.082;37.926;2022-08-19T11:24:08;4.43;;;2.83;;
71696;SDS011;59528;59.082;37.926;2022-08-19T11:26:35;5.78;;;2.35;;
71696;SDS011;59528;59.082;37.926;2022-08-19T11:29:01;2.78;;;2.45;;
71696;SDS011;59528;59.082;37.926;2022-08-19T11:31:29;4.97;;;2.33;;
71696;SDS011;59528;59.082;37.926;2022-08-19T11:33:56;3.67;;;2.33;;
71696;SDS011;59528;59.082;37.926;2022-08-19T11:36:22;5.20;;;2.33;;
71696;SDS011;59528;59.082;37.926;2022-08-19T11:38:48;5.35;;;2.42;;
71696;SDS011;59528;59.082;37.926;2022-08-19T11:41:15;3.22;;;2.40;;
71696;SDS011;59528;59.082;37.926;2022-08-19T11:43:41;4.22;;;2.35;;
71696;SDS011;59528;59.082;37.926;2022-08-19T11:46:07;2.80;;;2.05;;
71696;SDS011;59528;59.082;37.926;2022-08-19T11:48:33;6.07;;;2.08;;
71696;SDS011;59528;59.082;37.926;2022-08-19T11:50:59;8.32;;;2.40;;
71696;SDS011;59528;59.082;37.926;2022-08-19T11:53:24;6.22;;;3.25;;
71696;SDS011;59528;59.082;37.926;2022-08-19T11:55:52;6.45;;;2.60;;
71696;SDS011;59528;59.082;37.926;2022-08-19T11:58:21;2.67;;;2.20;;
71696;SDS011;59528;59.082;37.926;2022-08-19T12:00:46;4.20;;;2.17;;
71696;SDS011;59528;59.082;37.926;2022-08-19T12:03:12;2.58;;;2.05;;
71696;SDS011;59528;59.082;37.926;2022-08-19T12:05:38;5.88;;;2.38;;
71696;SDS011;59528;59.082;37.926;2022-08-19T12:08:05;3.35;;;2.17;;
71696;SDS011;59528;59.082;37.926;2022-08-19T12:10:31;2.83;;;2.38;;
71696;SDS011;59528;59.082;37.926;2022-08-19T12:12:57;4.43;;;2.17;;
71696;SDS011;59528;59.082;37.926;2022-08-19T12:15:23;3.47;;;2.42;;
71696;SDS011;59528;59.082;37.926;2022-08-19T12:17:48;5.10;;;2.13;;
71696;SDS011;59528;59.082;37.926;2022-08-19T12:20:14;2.55;;;2.30;;
71696;SDS011;59528;59.082;37.926;2022-08-19T12:22:42;2.58;;;2.15;;
71696;SDS011;59528;59.082;37.926;2022-08-19T12:25:11;3.38;;;2.38;;
71696;SDS011;59528;59.082;37.926;2022-08-19T12:27:37;3.30;;;2.38;;
71696;SDS011;59528;59.082;37.926;2022-08-19T12:30:06;2.45;;;1.90;;
71696;SDS011;59528;59.082;37.926;2022-08-19T12:32:33;2.72;;;2.00;;
71696;SDS011;59528;59.082;37.926;2022-08-19T12:34:58;3.20;;;2.08;;
71696;SDS011;59528;59.082;37.926;2022-08-19T12:37:24;3.95;;;2.20;;
71696;SDS011;59528;59.082;37.926;2022-08-19T12:39:50;6.18;;;2.17;;
71696;SDS011;59528;59.082;37.926;2022-08-19T12:42:16;2.95;;;2.03;;
71696;SDS011;59528;59.082;37.926;2022-08-19T12:44:43;4.13;;;2.33;;
71696;SDS011;59528;59.082;37.926;2022-08-19T12:47:10;4.32;;;1.92;;
71696;SDS011;59528;59.082;37.926;2022-08-19T12:49:36;3.13;;;2.47;;
71696;SDS011;59528;59.082;37.926;2022-08-19T12:52:04;3.15;;;2.00;;
71696;SDS011;59528;59.082;37.926;2022-08-19T12:54:29;4.53;;;2.30;;
71696;SDS011;59528;59.082;37.926;2022-08-19T12:56:56;5.47;;;2.00;;
71696;SDS011;59528;59.082;37.926;2022-08-19T12:59:22;3.35;;;2.10;;
71696;SDS011;59528;59.082;37.926;2022-08-19T13:01:47;3.15;;;2.33;;
71696;SDS011;59528;59.082;37.926;2022-08-19T13:04:13;6.95;;;2.22;;
71696;SDS011;59528;59.082;37.926;2022-08-19T13:06:39;4.68;;;2.30;;
71696;SDS011;59528;59.082;37.926;2022-08-19T13:09:04;3.30;;;1.85;;
71696;SDS011;59528;59.082;37.926;2022-08-19T13:11:30;2.50;;;2.08;;
71696;SDS011;59528;59.082;37.926;2022-08-19T13:14:00;2.10;;;1.90;;
71696;SDS011;59528;59.082;37.926;2022-08-19T13:16:26;5.55;;;2.28;;
71696;SDS011;59528;59.082;37.926;2022-08-19T13:18:53;15.15;;;13.55;;
71696;SDS011;59528;59.082;37.926;2022-08-19T13:21:19;4.88;;;3.55;;
71696;SDS011;59528;59.082;37.926;2022-08-19T13:23:45;3.13;;;2.28;;
71696;SDS011;59528;59.082;37.926;2022-08-19T13:26:11;2.83;;;2.53;;
71696;SDS011;59528;59.082;37.926;2022-08-19T13:28:38;4.35;;;2.42;;
71696;SDS011;59528;59.082;37.926;2022-08-19T13:31:23;2.47;;;1.85;;
71696;SDS011;59528;59.082;37.926;2022-08-19T13:34:07;3.75;;;2.33;;
71696;SDS011;59528;59.082;37.926;2022-08-19T13:36:33;2.28;;;1.83;;
71696;SDS011;59528;59.082;37.926;2022-08-19T13:38:58;2.30;;;2.00;;
71696;SDS011;59528;59.082;37.926;2022-08-19T13:41:24;3.15;;;1.92;;
71696;SDS011;59528;59.082;37.926;2022-08-19T13:43:50;3.13;;;1.77;;
71696;SDS011;59528;59.082;37.926;2022-08-19T13:46:16;2.42;;;1.75;;
71696;SDS011;59528;59.082;37.926;2022-08-19T13:48:42;4.72;;;2.00;;
71696;SDS011;59528;59.082;37.926;2022-08-19T13:51:12;5.18;;;1.77;;
71696;SDS011;59528;59.082;37.926;2022-08-19T13:53:38;2.15;;;1.83;;
71696;SDS011;59528;59.082;37.926;2022-08-19T13:56:05;6.53;;;2.08;;
71696;SDS011;59528;59.082;37.926;2022-08-19T13:58:32;2.10;;;1.90;;
71696;SDS011;59528;59.082;37.926;2022-08-19T14:00:59;2.08;;;1.88;;
71696;SDS011;59528;59.082;37.926;2022-08-19T14:03:26;6.20;;;1.85;;
71696;SDS011;59528;59.082;37.926;2022-08-19T14:05:53;4.15;;;1.52;;
71696;SDS011;59528;59.082;37.926;2022-08-19T14:08:19;2.03;;;1.75;;
71696;SDS011;59528;59.082;37.926;2022-08-19T14:10:45;4.20;;;1.88;;
71696;SDS011;59528;59.082;37.926;2022-08-19T14:13:13;6.07;;;1.90;;
71696;SDS011;59528;59.082;37.926;2022-08-19T14:15:39;6.07;;;2.35;;
71696;SDS011;59528;59.082;37.926;2022-08-19T14:18:05;3.78;;;1.70;;
71696;SDS011;59528;59.082;37.926;2022-08-19T14:20:33;4.13;;;1.92;;
71696;SDS011;59528;59.082;37.926;2022-08-19T14:22:58;1.92;;;1.67;;
71696;SDS011;59528;59.082;37.926;2022-08-19T14:25:25;3.65;;;1.88;;
71696;SDS011;59528;59.082;37.926;2022-08-19T14:27:52;3.42;;;2.10;;
71696;SDS011;59528;59.082;37.926;2022-08-19T14:30:23;4.18;;;1.90;;
71696;SDS011;59528;59.082;37.926;2022-08-19T14:32:50;4.53;;;1.70;;
71696;SDS011;59528;59.082;37.926;2022-08-19T14:35:16;4.72;;;2.13;;
71696;SDS011;59528;59.082;37.926;2022-08-19T14:37:43;3.92;;;2.00;;